createdAt,value
2022-09-04T00:02:42.056Z,17.06
2022-09-04T00:05:20.693Z,17.07
2022-09-04T00:08:21.238Z,17.11
2022-09-04T00:10:59.987Z,17.11
2022-09-04T00:13:38.865Z,17.10
2022-09-04T00:16:10.160Z,17.08
2022-09-04T00:18:58.366Z,17.08
2022-09-04T00:21:38.792Z,17.06
2022-09-04T00:24:10.679Z,17.03
2022-09-04T00:26:52.955Z,17.03
2022-09-04T00:29:19.784Z,17.01
2022-09-04T00:31:52.766Z,17.01
2022-09-04T00:34:32.595Z,17.03
2022-09-04T00:37:06.182Z,17.00
2022-09-04T00:39:43.592Z,16.99
2022-09-04T00:42:44.345Z,16.97
2022-09-04T00:45:29.117Z,16.92
2022-09-04T00:48:18.787Z,16.90
2022-09-04T00:51:16.073Z,16.86
2022-09-04T00:53:54.919Z,16.86
2022-09-04T00:56:52.115Z,16.85
2022-09-04T00:59:57.329Z,16.82
2022-09-04T01:02:56.529Z,16.78
2022-09-04T01:05:47.911Z,16.74
2022-09-04T01:08:35.100Z,16.72
2022-09-04T01:11:09.613Z,16.72
2022-09-04T01:13:51.840Z,16.70
2022-09-04T01:16:32.602Z,16.69
2022-09-04T01:19:15.445Z,16.64
2022-09-04T01:22:12.221Z,16.56
2022-09-04T01:24:59.564Z,16.51
2022-09-04T01:27:55.330Z,16.49
2022-09-04T01:30:22.830Z,16.45
2022-09-04T01:32:58.166Z,16.47
2022-09-04T01:35:48.233Z,16.45
2022-09-04T01:38:39.704Z,16.43
2022-09-04T01:41:18.716Z,16.39
2022-09-04T01:43:45.287Z,16.34
2022-09-04T01:46:26.010Z,16.30
2022-09-04T01:49:20.288Z,16.27
2022-09-04T01:52:07.875Z,16.25
2022-09-04T01:54:43.765Z,16.22
2022-09-04T01:57:16.145Z,16.20
2022-09-04T02:00:02.733Z,16.19
2022-09-04T02:02:38.216Z,16.15
2022-09-04T02:05:20.321Z,16.10
2022-09-04T02:07:49.420Z,16.02
2022-09-04T02:10:37.611Z,15.94
2022-09-04T02:13:16.087Z,15.88
2022-09-04T02:16:07.108Z,15.84
2022-09-04T02:18:51.039Z,15.83
2022-09-04T02:21:25.686Z,15.84
2022-09-04T02:24:22.638Z,15.83
2022-09-04T02:27:14.951Z,15.84
2022-09-04T02:30:01.331Z,15.84
2022-09-04T02:32:37.968Z,15.83
2022-09-04T02:35:21.250Z,15.83
2022-09-04T02:38:05.886Z,15.82
2022-09-04T02:40:38.120Z,15.77
2022-09-04T02:43:25.191Z,15.72
2022-09-04T02:46:16.656Z,15.67
2022-09-04T02:49:03.515Z,15.56
2022-09-04T02:52:01.870Z,15.47
2022-09-04T02:54:58.011Z,15.36
2022-09-04T02:57:47.794Z,15.27
2022-09-04T03:00:21.195Z,15.21
2022-09-04T03:03:05.489Z,15.22
2022-09-04T03:05:44.846Z,15.18
2022-09-04T03:08:20.847Z,15.15
2022-09-04T03:10:56.398Z,15.11
2022-09-04T03:13:30.251Z,15.07
2022-09-04T03:16:21.599Z,15.07
2022-09-04T03:19:16.438Z,15.08
2022-09-04T03:22:04.201Z,15.09
2022-09-04T03:24:35.928Z,15.06
2022-09-04T03:27:06.826Z,15.05
2022-09-04T03:29:51.342Z,15.06
2022-09-04T03:32:28.922Z,15.02
2022-09-04T03:35:20.153Z,14.97
2022-09-04T03:38:14.590Z,14.88
2022-09-04T03:41:06.221Z,14.82
2022-09-04T03:44:04.961Z,14.77
2022-09-04T03:46:37.751Z,14.71
2022-09-04T03:49:11.741Z,14.70
2022-09-04T03:51:38.362Z,14.67
2022-09-04T03:54:39.225Z,14.68
2022-09-04T03:57:19.801Z,14.64
2022-09-04T04:00:07.068Z,14.61
2022-09-04T04:03:21.241Z,14.56
2022-09-04T04:06:14.881Z,14.52
2022-09-04T04:08:59.389Z,14.47
2022-09-04T04:11:58.186Z,14.43
2022-09-04T04:14:46.144Z,14.43
2022-09-04T04:17:47.679Z,14.41
2022-09-04T04:20:22.126Z,14.38
2022-09-04T04:23:17.744Z,14.32
2022-09-04T04:25:52.735Z,14.31
2022-09-04T04:28:56.291Z,14.38
2022-09-04T04:31:44.633Z,14.41
2022-09-04T04:34:31.210Z,14.45
2022-09-04T04:37:11.035Z,14.50
2022-09-04T04:40:02.334Z,14.55
2022-09-04T04:42:40.785Z,14.54
2022-09-04T04:45:45.395Z,14.53
2022-09-04T04:48:42.780Z,14.53
2022-09-04T04:51:15.129Z,14.54
2022-09-04T04:53:41.732Z,14.56
2022-09-04T04:56:16.431Z,14.59
2022-09-04T04:59:23.452Z,14.62
2022-09-04T05:02:28.695Z,14.60
2022-09-04T05:05:03.807Z,14.63
2022-09-04T05:07:53.308Z,14.66
2022-09-04T05:10:32.020Z,14.70
2022-09-04T05:13:22.140Z,14.73
2022-09-04T05:16:09.074Z,14.77
2022-09-04T05:19:16.191Z,14.78
2022-09-04T05:22:13.706Z,14.79
2022-09-04T05:24:46.110Z,14.81
2022-09-04T05:27:49.939Z,14.84
2022-09-04T05:30:34.124Z,14.85
2022-09-04T05:33:15.545Z,14.87
2022-09-04T05:36:08.506Z,14.91
2022-09-04T05:38:50.913Z,14.94
2022-09-04T05:41:31.262Z,14.98
2022-09-04T05:44:18.445Z,15.05
2022-09-04T05:47:03.582Z,15.18
2022-09-04T05:49:45.064Z,15.29
2022-09-04T05:52:23.567Z,15.37
2022-09-04T05:55:02.078Z,15.43
2022-09-04T05:57:35.188Z,15.53
2022-09-04T06:00:16.489Z,15.65
2022-09-04T06:02:55.043Z,15.75
2022-09-04T06:05:45.998Z,15.86
2022-09-04T06:08:31.668Z,15.96
2022-09-04T06:11:26.177Z,16.08
2022-09-04T06:13:55.756Z,16.17
2022-09-04T06:16:48.357Z,16.26
2022-09-04T06:19:36.004Z,16.34
2022-09-04T06:22:30.066Z,16.43
2022-09-04T06:25:02.454Z,16.51
2022-09-04T06:27:28.968Z,16.59
2022-09-04T06:30:04.386Z,16.70
2022-09-04T06:32:49.287Z,16.79
2022-09-04T06:35:24.294Z,16.89
2022-09-04T06:38:12.534Z,16.99
2022-09-04T06:41:08.692Z,17.12
2022-09-04T06:43:44.202Z,17.18
2022-09-04T06:46:22.677Z,17.30
2022-09-04T06:48:55.030Z,17.40
2022-09-04T06:51:47.462Z,17.49
2022-09-04T06:54:46.202Z,17.56
2022-09-04T06:57:40.397Z,17.67
2022-09-04T07:00:13.221Z,17.75
2022-09-04T07:02:51.705Z,17.82
2022-09-04T07:05:18.349Z,17.90
2022-09-04T07:08:21.588Z,17.98
2022-09-04T07:10:59.048Z,18.03
2022-09-04T07:13:53.046Z,18.11
2022-09-04T07:16:45.531Z,18.17
2022-09-04T07:19:33.388Z,18.27
2022-09-04T07:22:42.182Z,18.35
2022-09-04T07:25:32.864Z,18.42
2022-09-04T07:28:24.068Z,18.49
2022-09-04T07:31:20.470Z,18.61
2022-09-04T07:34:01.320Z,18.70
2022-09-04T07:36:43.973Z,18.76
2022-09-04T07:39:28.509Z,18.89
2022-09-04T07:42:07.196Z,18.94
2022-09-04T07:44:52.137Z,19.05
2022-09-04T07:47:27.553Z,19.13
2022-09-04T07:50:02.910Z,19.16
2022-09-04T07:52:35.174Z,19.22
2022-09-04T07:55:28.151Z,19.31
2022-09-04T07:58:28.876Z,19.39
2022-09-04T08:01:14.571Z,19.48
2022-09-04T08:03:54.604Z,19.54
2022-09-04T08:06:24.377Z,19.60
2022-09-04T08:09:11.209Z,19.66
2022-09-04T08:11:40.593Z,19.71
2022-09-04T08:14:25.742Z,19.81
2022-09-04T08:17:33.272Z,19.87
2022-09-04T08:20:32.058Z,19.95
2022-09-04T08:23:01.892Z,20.04
2022-09-04T08:25:40.599Z,20.14
2022-09-04T08:28:20.921Z,20.10
2022-09-04T08:31:05.910Z,20.10
2022-09-04T08:34:00.006Z,20.10
2022-09-04T08:36:55.802Z,20.19
2022-09-04T08:39:57.698Z,20.34
2022-09-04T08:42:41.737Z,20.46
2022-09-04T08:45:26.472Z,20.54
2022-09-04T08:48:01.867Z,20.67
2022-09-04T08:50:59.895Z,20.84
2022-09-04T08:54:03.713Z,20.86
2022-09-04T08:56:51.203Z,20.87
2022-09-04T08:59:39.886Z,20.91
2022-09-04T09:02:52.417Z,20.98
2022-09-04T09:05:27.956Z,21.03
2022-09-04T09:08:32.131Z,21.19
2022-09-04T09:11:50.130Z,21.32
2022-09-04T09:14:53.447Z,21.36
2022-09-04T09:17:34.562Z,21.39
2022-09-04T09:20:26.498Z,21.48
2022-09-04T09:23:19.835Z,21.57
2022-09-04T09:25:55.520Z,21.61
2022-09-04T09:28:37.358Z,21.62
2022-09-04T09:31:09.798Z,21.65
2022-09-04T09:33:54.473Z,21.68
2022-09-04T09:36:53.232Z,21.71
2022-09-04T09:40:02.672Z,21.79
2022-09-04T09:42:51.296Z,21.90
2022-09-04T09:45:54.933Z,22.01
2022-09-04T09:48:21.538Z,22.15
2022-09-04T09:51:15.984Z,22.27
2022-09-04T09:53:59.146Z,22.34
2022-09-04T09:56:25.732Z,22.42
2022-09-04T09:59:30.212Z,22.57
2022-09-04T10:02:12.101Z,22.74
2022-09-04T10:05:16.580Z,22.91
2022-09-04T10:08:11.076Z,22.96
2022-09-04T10:10:54.610Z,22.97
2022-09-04T10:13:58.680Z,22.79
2022-09-04T10:16:40.267Z,22.85
2022-09-04T10:19:43.012Z,23.02
2022-09-04T10:22:51.617Z,23.09
2022-09-04T10:25:32.312Z,23.17
2022-09-04T10:28:49.696Z,23.29
2022-09-04T10:31:47.211Z,23.29
2022-09-04T10:34:32.922Z,23.44
2022-09-04T10:37:19.276Z,23.48
2022-09-04T10:40:22.942Z,23.62
2022-09-04T10:42:55.519Z,23.72
2022-09-04T10:45:39.293Z,23.81
2022-09-04T10:48:37.033Z,23.90
2022-09-04T10:51:04.252Z,24.14
2022-09-04T10:54:16.899Z,24.19
2022-09-04T10:56:55.415Z,24.31
2022-09-04T10:59:59.330Z,24.44
2022-09-04T11:02:57.111Z,24.63
2022-09-04T11:05:33.307Z,24.78
2022-09-04T11:08:18.754Z,24.79
2022-09-04T11:10:57.832Z,24.82
2022-09-04T11:13:42.819Z,24.98
2022-09-04T11:16:40.005Z,25.17
2022-09-04T11:19:51.204Z,25.25
2022-09-04T11:22:34.471Z,25.11
2022-09-04T11:25:06.818Z,25.10
2022-09-04T11:27:39.113Z,25.17
2022-09-04T11:30:12.138Z,25.40
2022-09-04T11:33:06.663Z,25.62
2022-09-04T11:35:45.370Z,25.85
2022-09-04T11:38:29.869Z,26.12
2022-09-04T11:41:05.342Z,26.20
2022-09-04T11:43:41.048Z,26.30
2022-09-04T11:46:22.564Z,26.47
2022-09-04T11:49:26.676Z,26.69
2022-09-04T11:52:13.864Z,26.80
2022-09-04T11:55:05.164Z,27.02
2022-09-04T11:58:08.547Z,27.01
2022-09-04T12:00:58.424Z,27.02
2022-09-04T12:03:27.839Z,27.08
2022-09-04T12:06:19.958Z,27.19
2022-09-04T12:09:30.956Z,27.04
2022-09-04T12:12:16.532Z,26.87
2022-09-04T12:14:54.807Z,26.84
2022-09-04T12:17:38.092Z,26.87
2022-09-04T12:20:25.408Z,26.85
2022-09-04T12:23:33.279Z,27.02
2022-09-04T12:26:21.535Z,27.26
2022-09-04T12:29:06.506Z,27.49
2022-09-04T12:32:14.161Z,27.45
2022-09-04T12:35:02.738Z,27.69
2022-09-04T12:37:50.832Z,27.81
2022-09-04T12:40:56.473Z,27.67
2022-09-04T12:43:42.846Z,27.57
2022-09-04T12:46:35.763Z,27.55
2022-09-04T12:49:39.997Z,27.35
2022-09-04T12:52:09.370Z,27.43
2022-09-04T12:55:35.846Z,27.67
2022-09-04T12:58:34.418Z,27.85
2022-09-04T13:01:22.584Z,27.90
2022-09-04T13:03:59.815Z,27.82
2022-09-04T13:06:38.531Z,27.78
2022-09-04T13:09:36.218Z,27.87
2022-09-04T13:12:26.931Z,27.99
2022-09-04T13:15:05.237Z,28.02
2022-09-04T13:18:16.282Z,28.07
2022-09-04T13:21:02.384Z,28.43
2022-09-04T13:23:59.356Z,28.46
2022-09-04T13:26:35.051Z,28.43
2022-09-04T13:29:29.606Z,28.36
2022-09-04T13:32:34.123Z,28.29
2022-09-04T13:35:25.037Z,28.15
2022-09-04T13:38:04.840Z,28.22
2022-09-04T13:40:46.558Z,28.25
2022-09-04T13:43:30.219Z,28.45
2022-09-04T13:46:03.139Z,28.57
2022-09-04T13:48:52.144Z,28.52
2022-09-04T13:51:24.235Z,28.62
2022-09-04T13:54:11.398Z,28.61
2022-09-04T13:56:53.007Z,28.59
2022-09-04T13:59:22.586Z,28.65
2022-09-04T14:01:54.426Z,28.91
2022-09-04T14:04:28.034Z,29.25
2022-09-04T14:07:02.454Z,29.33
2022-09-04T14:09:34.192Z,29.07
2022-09-04T14:12:32.155Z,28.83
2022-09-04T14:15:28.470Z,28.57
2022-09-04T14:18:13.926Z,28.53
2022-09-04T14:21:01.435Z,28.68
2022-09-04T14:23:53.066Z,28.62
2022-09-04T14:26:25.778Z,28.83
2022-09-04T14:29:15.671Z,28.98
2022-09-04T14:32:11.676Z,28.99
2022-09-04T14:35:08.528Z,28.88
2022-09-04T14:37:54.220Z,28.85
2022-09-04T14:40:29.782Z,28.82
2022-09-04T14:43:28.498Z,28.65
2022-09-04T14:46:11.052Z,28.70
2022-09-04T14:48:40.880Z,28.99
2022-09-04T14:51:40.038Z,28.59
2022-09-04T14:54:09.167Z,27.93
2022-09-04T14:56:52.893Z,27.44
2022-09-04T14:59:28.335Z,27.31
2022-09-04T15:02:18.111Z,27.77
2022-09-04T15:05:01.484Z,28.08
2022-09-04T15:07:43.434Z,28.00
2022-09-04T15:10:19.247Z,27.76
2022-09-04T15:12:52.114Z,27.77
2022-09-04T15:15:30.440Z,28.07
2022-09-04T15:18:23.748Z,28.41
2022-09-04T15:21:12.819Z,28.78
2022-09-04T15:23:44.689Z,28.79
2022-09-04T15:26:22.543Z,28.88
2022-09-04T15:28:55.332Z,29.19
2022-09-04T15:31:41.926Z,29.31
2022-09-04T15:34:20.773Z,29.36
2022-09-04T15:36:48.006Z,29.21
2022-09-04T15:39:29.345Z,29.02
2022-09-04T15:41:56.125Z,28.96
2022-09-04T15:44:39.667Z,29.10
2022-09-04T15:47:23.195Z,29.23
2022-09-04T15:49:55.396Z,29.32
2022-09-04T15:52:41.229Z,29.26
2022-09-04T15:55:29.451Z,29.12
2022-09-04T15:58:16.286Z,29.01
2022-09-04T16:01:16.913Z,28.86
2022-09-04T16:04:12.647Z,28.90
2022-09-04T16:07:20.441Z,28.96
2022-09-04T16:09:54.752Z,28.74
2022-09-04T16:12:30.675Z,28.68
2022-09-04T16:15:05.229Z,28.82
2022-09-04T16:17:41.828Z,28.89
2022-09-04T16:20:30.871Z,28.96
2022-09-04T16:23:04.502Z,28.95
2022-09-04T16:25:40.119Z,28.86
2022-09-04T16:28:15.507Z,28.80
2022-09-04T16:30:47.698Z,28.82
2022-09-04T16:33:30.686Z,28.86
2022-09-04T16:36:24.704Z,29.00
2022-09-04T16:39:05.634Z,29.13
2022-09-04T16:41:37.737Z,29.24
2022-09-04T16:44:26.691Z,29.23
2022-09-04T16:47:06.084Z,29.16
2022-09-04T16:49:51.342Z,29.08
2022-09-04T16:52:21.978Z,29.05
2022-09-04T16:54:55.901Z,29.09
2022-09-04T16:57:34.092Z,29.11
2022-09-04T17:00:08.012Z,29.15
2022-09-04T17:02:53.502Z,29.27
2022-09-04T17:05:49.427Z,29.78
2022-09-04T17:08:25.003Z,30.61
2022-09-04T17:10:51.700Z,30.27
2022-09-04T17:13:27.980Z,29.39
2022-09-04T17:16:02.400Z,28.58
2022-09-04T17:18:30.590Z,27.99
2022-09-04T17:23:53.551Z,27.56
2022-09-04T17:28:57.382Z,27.07
2022-09-04T17:29:10.277Z,26.65
2022-09-04T17:29:52.687Z,26.27
2022-09-04T17:34:01.634Z,25.95
2022-09-04T17:40:39.499Z,25.64
2022-09-04T17:40:54.773Z,25.34
2022-09-04T17:41:36.136Z,25.04
2022-09-04T17:44:46.225Z,24.76
2022-09-04T17:47:38.034Z,24.48
2022-09-04T17:50:13.938Z,24.23
2022-09-04T17:53:01.913Z,24.02
2022-09-04T17:55:31.457Z,23.84
2022-09-04T17:58:11.570Z,23.64
2022-09-04T18:01:15.015Z,23.39
2022-09-04T18:04:19.807Z,23.18
2022-09-04T18:06:51.042Z,22.95
2022-09-04T18:09:27.363Z,22.80
2022-09-04T18:12:11.093Z,22.65
2022-09-04T18:14:47.587Z,22.50
2022-09-04T18:17:33.993Z,22.33
2022-09-04T18:20:21.940Z,22.16
2022-09-04T18:23:06.243Z,22.01
2022-09-04T18:25:42.179Z,21.97
2022-09-04T18:28:36.630Z,21.84
2022-09-04T18:37:07.652Z,21.77
2022-09-04T18:37:17.021Z,21.65
2022-09-04T18:37:44.601Z,21.53
2022-09-04T18:40:12.423Z,21.40
2022-09-04T18:48:54.920Z,21.30
2022-09-04T18:50:24.393Z,21.16
2022-09-04T18:50:46.486Z,21.11
2022-09-04T18:51:31.335Z,21.00
2022-09-04T18:54:11.218Z,20.91
2022-09-04T18:56:47.783Z,20.83
2022-09-04T18:59:21.230Z,20.78
2022-09-04T19:02:00.828Z,20.74
2022-09-04T19:04:41.543Z,20.72
2022-09-04T19:07:10.609Z,20.68
2022-09-04T19:10:02.270Z,20.65
2022-09-04T19:12:46.971Z,20.58
2022-09-04T19:15:27.420Z,20.51
2022-09-04T19:18:22.284Z,20.45
2022-09-04T19:20:53.728Z,20.30
2022-09-04T19:23:29.937Z,20.11
2022-09-04T19:26:02.029Z,19.91
2022-09-04T19:28:45.691Z,19.79
2022-09-04T19:31:30.065Z,19.77
2022-09-04T19:34:04.824Z,19.74
2022-09-04T19:36:36.603Z,19.71
2022-09-04T19:43:30.470Z,19.66
2022-09-04T19:46:03.654Z,19.54
2022-09-04T19:46:14.571Z,19.41
2022-09-04T19:48:20.703Z,19.29
2022-09-04T19:53:22.202Z,19.20
2022-09-04T19:53:54.742Z,19.18
2022-09-04T19:56:31.223Z,19.17
2022-09-04T19:59:05.516Z,19.15
2022-09-04T20:01:44.739Z,19.15
2022-09-04T20:04:26.346Z,19.17
2022-09-04T20:06:59.507Z,19.15
2022-09-04T20:09:34.108Z,19.18
2022-09-04T20:12:19.666Z,19.19
2022-09-04T20:14:55.047Z,19.14
2022-09-04T20:18:01.540Z,19.06
2022-09-04T20:20:44.992Z,18.94
2022-09-04T20:23:34.644Z,18.85
2022-09-04T20:26:20.154Z,18.79
2022-09-04T20:29:08.513Z,18.71
2022-09-04T20:31:46.338Z,18.58
2022-09-04T20:34:32.173Z,18.51
2022-09-04T20:37:24.949Z,18.43
2022-09-04T20:40:01.351Z,18.35
2022-09-04T20:42:35.421Z,18.27
2022-09-04T20:48:07.728Z,18.26
2022-09-04T20:52:58.597Z,18.18
2022-09-04T20:53:00.035Z,18.21
2022-09-04T20:54:15.235Z,18.19
2022-09-04T21:03:05.279Z,18.26
2022-09-04T21:03:06.761Z,18.30
2022-09-04T21:03:29.453Z,18.33
2022-09-04T21:06:06.981Z,18.30
2022-09-04T21:09:00.641Z,18.23
2022-09-04T21:11:50.422Z,18.13
2022-09-04T21:14:26.932Z,18.06
2022-09-04T21:17:33.937Z,18.05
2022-09-04T21:20:23.346Z,18.06
2022-09-04T21:23:32.608Z,18.06
2022-09-04T21:26:33.848Z,18.04
2022-09-04T21:29:17.602Z,17.95
2022-09-04T21:31:52.979Z,17.93
2022-09-04T21:35:02.187Z,17.89
2022-09-04T21:37:41.565Z,17.84
2022-09-04T21:40:49.504Z,17.84
2022-09-04T21:43:37.825Z,17.84
2022-09-04T21:46:13.600Z,17.85
2022-09-04T21:49:07.812Z,17.86
2022-09-04T21:51:50.126Z,17.83
2022-09-04T21:55:29.847Z,17.76
2022-09-04T22:02:28.646Z,17.72
2022-09-04T22:02:37.796Z,17.66
2022-09-04T22:03:42.467Z,17.67
2022-09-04T22:06:15.737Z,17.68
2022-09-04T22:13:31.762Z,17.68
2022-09-04T22:13:42.099Z,17.64
2022-09-04T22:15:08.660Z,17.58
2022-09-04T22:17:35.187Z,17.48
2022-09-04T22:20:20.335Z,17.39
2022-09-04T22:23:18.433Z,17.31
2022-09-04T22:26:09.169Z,17.30
2022-09-04T22:28:51.229Z,17.26
2022-09-04T22:31:22.468Z,17.26
2022-09-04T22:34:15.134Z,17.27
2022-09-04T22:37:18.736Z,17.27
2022-09-04T22:39:52.119Z,17.23
2022-09-04T22:42:33.735Z,17.22
2022-09-04T22:45:09.664Z,17.22
2022-09-04T22:47:54.835Z,17.25
2022-09-04T22:50:25.347Z,17.29
2022-09-04T22:53:32.623Z,17.37
2022-09-04T22:56:23.497Z,17.46
2022-09-04T22:59:25.844Z,17.52
2022-09-04T23:02:34.547Z,17.63
2022-09-04T23:05:29.691Z,17.69
2022-09-04T23:13:48.403Z,17.67
2022-09-04T23:13:54.634Z,17.51
2022-09-04T23:14:19.012Z,17.35
2022-09-04T23:16:46.798Z,17.21
2022-09-04T23:26:34.728Z,17.02
2022-09-04T23:26:35.391Z,17.14
2022-09-04T23:26:43.574Z,16.92
2022-09-04T23:29:13.940Z,16.79
2022-09-04T23:31:53.123Z,16.66
2022-09-04T23:34:34.377Z,16.58
2022-09-04T23:37:25.651Z,16.52
2022-09-04T23:40:19.480Z,16.45
2022-09-04T23:42:52.098Z,16.37
2022-09-04T23:46:01.760Z,16.32
2022-09-04T23:49:06.783Z,16.25
2022-09-04T23:51:50.107Z,16.23
2022-09-04T23:54:34.028Z,16.21
2022-09-04T23:57:08.519Z,16.16
2022-09-04T23:59:54.346Z,16.06
